Overview Statistics Trail Chart Weather Telemetry Raw packets
 

This is the latest recevied weather packets stored in our database for station/object DO1BDB-12. If no packets are shown the sender has not sent any weather packets the latest 10 day(s).

<< 470 471 472 473 474 475 476 >>
Time Temp. Humidity Pressure Rain* Wind** Luminosity Snow
1787817428 25° C 44% 102.1 hPa - - - -
1787817362 25° C 43% 102.1 hPa - - - -
1787817296 25° C 43% 102.1 hPa - - - -
1787817230 25° C 45% 102.1 hPa - - - -
1787817164 25.56° C 43% 102.1 hPa - - - -
1787817099 24.44° C 46% 102.1 hPa - - - -
1787817033 23.89° C 46% 102.1 hPa - - - -
1787816967 24.44° C 45% 102.1 hPa - - - -
1787816901 23.89° C 46% 102.1 hPa - - - -
1787816835 23.33° C 47% 102.1 hPa - - - -
1787816769 23.89° C 46% 102.1 hPa - - - -
1787816703 25° C 45% 102.1 hPa - - - -
1787816638 25° C 43% 102.1 hPa - - - -
1787816572 26.67° C 42% 102.1 hPa - - - -
1787816506 25.56° C 43% 102.1 hPa - - - -
1787816440 23.89° C 45% 102.1 hPa - - - -
1787816374 23.89° C 45% 102.1 hPa - - - -
1787816308 24.44° C 44% 102.1 hPa - - - -
1787816242 24.44° C 47% 102.1 hPa - - - -
1787816177 23.89° C 47% 102.1 hPa - - - -
1787816111 24.44° C 46% 102.1 hPa - - - -
1787816045 25.56° C 45% 102.1 hPa - - - -
1787815979 26.67° C 41% 102.1 hPa - - - -
1787815913 26.67° C 41% 102.1 hPa - - - -
1787815848 26.67° C 43% 102.1 hPa - - - -

* Rain since midnight (hover to see other rain measurements)
** Current wind speed in m/s (hover to see current wind gust speed)